createdAt,value
2017-10-22T00:00:36.908Z,9.90
2017-10-22T00:03:04.975Z,10.00
2017-10-22T00:05:33.829Z,9.80
2017-10-22T00:08:01.905Z,9.70
2017-10-22T00:10:29.984Z,9.90
2017-10-22T00:12:58.068Z,9.80
2017-10-22T00:15:26.148Z,9.80
2017-10-22T00:17:54.982Z,9.80
2017-10-22T00:20:23.062Z,9.80
2017-10-22T00:22:51.142Z,9.80
2017-10-22T00:25:19.212Z,9.90
2017-10-22T00:27:47.291Z,9.80
2017-10-22T00:30:15.367Z,9.70
2017-10-22T00:32:43.446Z,9.70
2017-10-22T00:35:11.507Z,9.60
2017-10-22T00:37:39.581Z,9.80
2017-10-22T00:40:07.665Z,9.70
2017-10-22T00:42:35.739Z,9.50
2017-10-22T00:45:04.579Z,9.60
2017-10-22T00:47:32.677Z,9.60
2017-10-22T00:50:00.730Z,9.50
2017-10-22T00:52:28.835Z,9.60
2017-10-22T00:54:56.903Z,9.60
2017-10-22T00:57:24.971Z,9.70
2017-10-22T00:59:53.056Z,9.60
2017-10-22T01:02:21.896Z,9.70
2017-10-22T01:04:49.984Z,9.70
2017-10-22T01:07:18.120Z,9.60
2017-10-22T01:09:46.207Z,9.60
2017-10-22T01:12:14.540Z,9.60
2017-10-22T01:14:42.621Z,9.50
2017-10-22T01:17:29.259Z,9.60
2017-10-22T01:19:57.346Z,9.60
2017-10-22T01:22:25.417Z,9.50
2017-10-22T01:24:53.496Z,9.50
2017-10-22T01:27:21.564Z,9.50
2017-10-22T01:29:49.652Z,9.50
2017-10-22T01:32:18.492Z,9.40
2017-10-22T01:34:46.572Z,9.40
2017-10-22T01:37:14.640Z,9.50
2017-10-22T01:39:42.817Z,9.50
2017-10-22T01:42:10.892Z,9.50
2017-10-22T01:44:38.961Z,9.50
2017-10-22T01:47:07.026Z,9.50
2017-10-22T01:49:35.107Z,9.50
2017-10-22T01:52:03.191Z,9.50
2017-10-22T01:54:31.263Z,9.50
2017-10-22T01:56:59.335Z,9.50
2017-10-22T01:59:27.407Z,9.50
2017-10-22T02:01:56.249Z,9.50
2017-10-22T02:04:24.330Z,9.40
2017-10-22T02:06:52.395Z,9.50
2017-10-22T02:09:20.465Z,9.50
2017-10-22T02:11:48.567Z,9.50
2017-10-22T02:14:16.643Z,9.50
2017-10-22T02:16:44.712Z,9.50
2017-10-22T02:19:12.787Z,9.60
2017-10-22T02:21:41.623Z,9.70
2017-10-22T02:24:09.703Z,9.70
2017-10-22T02:26:37.775Z,9.70
2017-10-22T02:29:05.855Z,9.60
2017-10-22T02:31:33.930Z,9.70
2017-10-22T02:34:02.005Z,9.60
2017-10-22T02:36:30.081Z,9.60
2017-10-22T02:38:58.168Z,9.50
2017-10-22T02:41:26.236Z,9.50
2017-10-22T02:43:55.083Z,9.50
2017-10-22T02:46:23.143Z,9.50
2017-10-22T02:48:51.244Z,9.60
2017-10-22T02:51:19.325Z,9.60
2017-10-22T02:53:47.400Z,9.60
2017-10-22T02:56:15.480Z,9.60
2017-10-22T02:58:44.328Z,9.50
2017-10-22T03:01:12.411Z,9.50
2017-10-22T03:03:40.482Z,9.50
2017-10-22T03:06:08.555Z,9.50
2017-10-22T03:08:36.623Z,9.60
2017-10-22T03:11:04.704Z,9.50
2017-10-22T03:13:32.792Z,9.50
2017-10-22T03:16:01.655Z,9.50
2017-10-22T03:18:29.757Z,9.50
2017-10-22T03:20:58.587Z,9.50
2017-10-22T03:23:26.676Z,9.50
2017-10-22T03:25:54.747Z,9.50
2017-10-22T03:28:22.836Z,9.50
2017-10-22T03:30:50.924Z,9.50
2017-10-22T03:33:19.769Z,9.50
2017-10-22T03:35:47.852Z,9.50
2017-10-22T03:38:15.936Z,9.60
2017-10-22T03:40:44.006Z,9.60
2017-10-22T03:43:12.100Z,9.50
2017-10-22T03:45:40.944Z,9.50
2017-10-22T03:48:09.007Z,9.50
2017-10-22T03:50:37.078Z,9.50
2017-10-22T03:53:05.162Z,9.50
2017-10-22T03:55:33.223Z,9.50
2017-10-22T03:58:01.303Z,9.30
2017-10-22T04:00:29.379Z,9.30
2017-10-22T04:02:57.451Z,9.20
2017-10-22T04:05:25.524Z,9.20
2017-10-22T04:07:53.605Z,9.10
2017-10-22T04:10:22.446Z,9.10
2017-10-22T04:12:50.516Z,9.10
2017-10-22T04:15:18.596Z,9.00
2017-10-22T04:17:46.663Z,9.10
2017-10-22T04:20:14.747Z,9.20
2017-10-22T04:22:42.824Z,9.20
2017-10-22T04:25:10.899Z,9.00
2017-10-22T04:27:38.988Z,9.00
2017-10-22T04:30:07.831Z,8.90
2017-10-22T04:32:35.901Z,8.90
2017-10-22T04:35:03.982Z,8.80
2017-10-22T04:37:32.060Z,8.90
2017-10-22T04:40:00.131Z,8.90
2017-10-22T04:42:28.198Z,8.90
2017-10-22T04:44:56.272Z,8.70
2017-10-22T04:47:24.355Z,8.70
2017-10-22T04:49:52.433Z,8.70
2017-10-22T04:52:21.274Z,8.70
2017-10-22T04:54:49.344Z,8.70
2017-10-22T04:57:17.426Z,8.70
2017-10-22T04:59:45.503Z,8.60
2017-10-22T05:02:13.575Z,8.60
2017-10-22T05:04:41.652Z,8.60
2017-10-22T05:07:09.737Z,8.60
2017-10-22T05:09:37.807Z,8.70
2017-10-22T05:12:06.655Z,8.60
2017-10-22T05:14:34.736Z,8.50
2017-10-22T05:17:02.809Z,8.60
2017-10-22T05:19:30.894Z,8.40
2017-10-22T05:21:58.959Z,8.40
2017-10-22T05:24:27.040Z,8.40
2017-10-22T05:26:55.106Z,8.40
2017-10-22T05:29:23.187Z,8.40
2017-10-22T05:31:52.032Z,8.40
2017-10-22T05:34:20.122Z,8.40
2017-10-22T05:36:48.204Z,8.50
2017-10-22T05:39:16.568Z,8.50
2017-10-22T05:41:44.629Z,8.60
2017-10-22T05:44:12.709Z,8.50
2017-10-22T05:46:40.791Z,8.60
2017-10-22T05:49:08.895Z,8.40
2017-10-22T05:51:36.964Z,8.30
2017-10-22T05:54:05.047Z,8.30
2017-10-22T05:56:33.123Z,8.30
2017-10-22T05:59:01.197Z,8.20
2017-10-22T06:01:29.278Z,8.30
2017-10-22T06:03:57.393Z,8.30
2017-10-22T06:06:25.475Z,8.40
2017-10-22T06:08:54.315Z,8.40
2017-10-22T06:11:22.391Z,8.40
2017-10-22T06:13:50.470Z,8.40
2017-10-22T06:16:18.561Z,8.40
2017-10-22T06:18:46.627Z,8.50
2017-10-22T06:21:14.719Z,8.40
2017-10-22T06:23:43.552Z,8.40
2017-10-22T06:26:11.622Z,8.40
2017-10-22T06:28:39.713Z,8.40
2017-10-22T06:31:07.772Z,8.60
2017-10-22T06:33:35.860Z,8.60
2017-10-22T06:36:03.938Z,8.70
2017-10-22T06:38:32.008Z,8.70
2017-10-22T06:41:00.076Z,8.60
2017-10-22T06:43:28.156Z,8.70
2017-10-22T06:45:56.997Z,8.50
2017-10-22T06:48:25.067Z,8.50
2017-10-22T06:50:53.138Z,8.70
2017-10-22T06:53:21.229Z,8.70
2017-10-22T06:55:49.298Z,8.80
2017-10-22T06:58:17.370Z,9.00
2017-10-22T07:00:45.445Z,9.10
2017-10-22T07:03:13.540Z,9.50
2017-10-22T07:05:42.383Z,9.70
2017-10-22T07:08:10.452Z,9.60
2017-10-22T07:10:38.534Z,9.80
2017-10-22T07:13:06.608Z,10.30
2017-10-22T07:15:34.695Z,10.10
2017-10-22T07:18:02.778Z,10.40
2017-10-22T07:20:30.847Z,10.80
2017-10-22T07:22:59.691Z,12.00
2017-10-22T07:25:27.771Z,11.90
2017-10-22T07:27:55.847Z,12.00
2017-10-22T07:30:23.922Z,12.40
2017-10-22T07:32:52.003Z,13.40
2017-10-22T07:35:20.107Z,13.70
2017-10-22T07:37:48.179Z,12.70
2017-10-22T07:40:16.248Z,14.30
2017-10-22T07:42:44.324Z,14.10
2017-10-22T07:45:12.394Z,14.70
2017-10-22T07:47:40.466Z,14.40
2017-10-22T07:50:08.531Z,14.70
2017-10-22T07:52:36.676Z,16.10
2017-10-22T07:55:05.526Z,15.50
2017-10-22T07:57:33.617Z,15.50
2017-10-22T08:00:01.749Z,15.40
2017-10-22T08:02:29.808Z,15.90
2017-10-22T08:04:57.875Z,15.10
2017-10-22T08:07:25.951Z,15.60
2017-10-22T08:09:54.035Z,16.00
2017-10-22T08:12:22.124Z,15.50
2017-10-22T08:14:50.211Z,16.00
2017-10-22T08:17:18.307Z,15.50
2017-10-22T08:19:47.156Z,13.50
2017-10-22T08:22:15.223Z,13.50
2017-10-22T08:24:43.319Z,15.30
2017-10-22T08:27:11.399Z,15.60
2017-10-22T08:29:40.239Z,14.60
2017-10-22T08:32:08.312Z,14.60
2017-10-22T08:34:36.400Z,14.90
2017-10-22T08:37:04.491Z,14.20
2017-10-22T08:39:32.563Z,14.40
2017-10-22T08:42:00.644Z,14.40
2017-10-22T08:44:29.517Z,13.30
2017-10-22T08:46:57.582Z,13.30
2017-10-22T08:49:25.664Z,12.90
2017-10-22T08:51:54.518Z,12.60
2017-10-22T08:54:22.604Z,12.50
2017-10-22T08:56:50.684Z,12.90
2017-10-22T08:59:18.779Z,13.40
2017-10-22T09:01:47.610Z,15.40
2017-10-22T09:04:15.685Z,15.30
2017-10-22T09:06:43.761Z,14.30
2017-10-22T09:09:11.843Z,13.70
2017-10-22T09:11:39.919Z,13.70
2017-10-22T09:14:08.000Z,12.80
2017-10-22T09:16:36.059Z,12.40
2017-10-22T09:19:04.128Z,11.90
2017-10-22T09:21:32.200Z,11.70
2017-10-22T09:24:00.276Z,11.60
2017-10-22T09:26:28.360Z,12.10
2017-10-22T09:28:57.192Z,11.80
2017-10-22T09:31:25.416Z,11.80
2017-10-22T09:33:53.471Z,11.70
2017-10-22T09:36:21.552Z,12.60
2017-10-22T09:38:50.452Z,13.50
2017-10-22T09:41:18.518Z,13.50
2017-10-22T09:43:47.359Z,15.40
2017-10-22T09:46:15.444Z,15.40
2017-10-22T09:48:43.534Z,16.00
2017-10-22T09:51:11.604Z,15.90
2017-10-22T09:53:39.685Z,16.40
2017-10-22T09:56:08.184Z,14.70
2017-10-22T09:58:36.236Z,15.00
2017-10-22T10:01:05.080Z,12.40
2017-10-22T10:03:33.147Z,12.30
2017-10-22T10:06:01.266Z,12.30
2017-10-22T10:08:29.459Z,12.10
2017-10-22T10:10:57.824Z,12.40
2017-10-22T10:13:26.670Z,12.20
2017-10-22T10:15:54.744Z,12.20
2017-10-22T10:18:22.811Z,11.90
2017-10-22T10:20:50.919Z,11.90
2017-10-22T10:23:19.751Z,11.90
2017-10-22T10:25:47.827Z,11.80
2017-10-22T10:28:15.923Z,12.00
2017-10-22T10:30:44.042Z,12.00
2017-10-22T10:33:12.124Z,11.90
2017-10-22T10:35:40.204Z,12.10
2017-10-22T10:38:08.281Z,12.20
2017-10-22T10:40:36.373Z,12.80
2017-10-22T10:43:04.445Z,12.30
2017-10-22T10:45:32.531Z,12.00
2017-10-22T10:48:01.383Z,11.70
2017-10-22T10:50:29.467Z,11.70
2017-10-22T10:52:57.554Z,11.70
2017-10-22T10:55:25.636Z,11.70
2017-10-22T10:57:54.476Z,11.80
2017-10-22T11:00:22.555Z,11.70
2017-10-22T11:02:50.633Z,11.80
2017-10-22T11:05:18.731Z,11.90
2017-10-22T11:07:47.585Z,11.70
2017-10-22T11:10:15.655Z,11.70
2017-10-22T11:12:43.732Z,11.80
2017-10-22T11:15:11.807Z,11.80
2017-10-22T11:17:39.888Z,11.70
2017-10-22T11:20:07.966Z,11.80
2017-10-22T11:22:36.049Z,11.70
2017-10-22T11:25:04.116Z,12.00
2017-10-22T11:27:32.195Z,11.60
2017-10-22T11:30:00.285Z,11.60
2017-10-22T11:32:29.155Z,11.50
2017-10-22T11:34:57.238Z,11.50
2017-10-22T11:37:26.092Z,11.60
2017-10-22T11:39:54.163Z,11.60
2017-10-22T11:42:22.248Z,11.40
2017-10-22T11:44:50.340Z,11.50
2017-10-22T11:47:19.220Z,11.40
2017-10-22T11:49:47.309Z,11.40
2017-10-22T11:52:16.152Z,11.30
2017-10-22T11:54:44.305Z,11.20
2017-10-22T11:57:12.373Z,11.20
2017-10-22T11:59:40.458Z,11.10
2017-10-22T12:02:08.544Z,11.10
2017-10-22T12:04:36.628Z,11.10
2017-10-22T12:07:04.702Z,11.60
2017-10-22T12:09:33.600Z,11.70
2017-10-22T12:12:02.462Z,11.80
2017-10-22T12:14:30.532Z,11.80
2017-10-22T12:16:58.595Z,12.00
2017-10-22T12:19:26.692Z,12.40
2017-10-22T12:21:55.540Z,13.30
2017-10-22T12:24:23.779Z,13.30
2017-10-22T12:26:52.614Z,13.60
2017-10-22T12:29:20.747Z,13.60
2017-10-22T12:31:48.843Z,12.80
2017-10-22T12:34:16.912Z,13.60
2017-10-22T12:36:45.037Z,14.70
2017-10-22T12:39:13.947Z,15.30
2017-10-22T12:41:42.063Z,15.20
2017-10-22T12:44:10.140Z,15.30
2017-10-22T12:46:38.224Z,15.40
2017-10-22T12:49:06.347Z,16.20
2017-10-22T12:51:34.424Z,15.50
2017-10-22T12:54:02.496Z,16.10
2017-10-22T12:56:30.790Z,15.20
2017-10-22T12:58:58.933Z,15.10
2017-10-22T13:01:27.004Z,14.40
2017-10-22T13:03:55.084Z,14.90
2017-10-22T13:06:23.194Z,15.00
2017-10-22T13:08:51.256Z,15.30
2017-10-22T13:11:19.330Z,14.70
2017-10-22T13:13:47.412Z,14.60
2017-10-22T13:16:15.496Z,14.30
2017-10-22T13:18:44.379Z,13.30
2017-10-22T13:21:13.238Z,13.30
2017-10-22T13:23:41.316Z,13.30
2017-10-22T13:26:09.391Z,13.50
2017-10-22T13:28:37.490Z,13.30
2017-10-22T13:31:06.341Z,12.90
2017-10-22T13:33:34.451Z,12.90
2017-10-22T13:36:03.301Z,12.70
2017-10-22T13:38:31.380Z,12.70
2017-10-22T13:40:59.507Z,12.60
2017-10-22T13:43:27.590Z,12.60
2017-10-22T13:45:55.667Z,12.40
2017-10-22T13:48:23.748Z,12.50
2017-10-22T13:50:51.833Z,12.40
2017-10-22T13:53:19.999Z,12.30
2017-10-22T13:55:48.091Z,12.40
2017-10-22T13:58:16.162Z,12.20
2017-10-22T14:00:44.248Z,11.90
2017-10-22T14:03:12.319Z,11.80
2017-10-22T14:05:40.428Z,11.60
2017-10-22T14:08:08.501Z,11.60
2017-10-22T14:10:36.708Z,11.60
2017-10-22T14:13:04.869Z,11.70
2017-10-22T14:15:33.040Z,11.60
2017-10-22T14:18:01.129Z,11.50
2017-10-22T14:20:29.211Z,11.70
2017-10-22T14:22:57.293Z,11.50
2017-10-22T14:25:25.371Z,11.50
2017-10-22T14:27:53.452Z,11.40
2017-10-22T14:30:21.538Z,11.60
2017-10-22T14:32:49.644Z,11.90
2017-10-22T14:35:17.710Z,12.00
2017-10-22T14:37:45.798Z,11.50
2017-10-22T14:40:14.711Z,11.20
2017-10-22T14:42:42.795Z,11.20
2017-10-22T14:45:11.729Z,11.10
2017-10-22T14:47:39.812Z,11.10
2017-10-22T14:50:07.896Z,11.20
2017-10-22T14:52:35.967Z,11.30
2017-10-22T14:55:04.042Z,11.30
2017-10-22T14:57:32.149Z,11.20
2017-10-22T15:00:01.329Z,11.00
2017-10-22T15:02:29.403Z,11.00
2017-10-22T15:04:57.792Z,11.30
2017-10-22T15:07:27.707Z,11.30
2017-10-22T15:09:55.992Z,11.20
2017-10-22T15:12:24.051Z,11.10
2017-10-22T15:14:52.419Z,10.90
2017-10-22T15:17:20.752Z,10.80
2017-10-22T15:19:48.836Z,10.80
2017-10-22T15:22:17.219Z,10.90
2017-10-22T15:24:45.557Z,10.60
2017-10-22T15:27:13.764Z,10.60
2017-10-22T15:29:41.872Z,10.40
2017-10-22T15:32:10.096Z,10.40
2017-10-22T15:34:38.252Z,10.40
2017-10-22T15:37:06.339Z,10.30
2017-10-22T15:39:35.197Z,10.30
2017-10-22T15:42:03.413Z,10.30
2017-10-22T15:44:31.565Z,10.20
2017-10-22T15:47:00.216Z,10.10
2017-10-22T15:49:28.348Z,10.00
2017-10-22T15:51:56.695Z,10.00
2017-10-22T15:54:25.575Z,9.90
2017-10-22T15:56:53.945Z,9.90
2017-10-22T15:59:22.027Z,9.90
2017-10-22T16:01:50.110Z,9.90
2017-10-22T16:04:18.254Z,9.90
2017-10-22T16:06:46.348Z,9.90
2017-10-22T16:09:15.199Z,10.00
2017-10-22T16:11:43.274Z,10.00
2017-10-22T16:14:11.355Z,10.00
2017-10-22T16:16:39.430Z,9.80
2017-10-22T16:19:07.512Z,9.80
2017-10-22T16:21:36.409Z,10.30
2017-10-22T16:24:05.277Z,9.90
2017-10-22T16:26:33.348Z,9.90
2017-10-22T16:29:01.464Z,10.20
2017-10-22T16:31:29.539Z,9.80
2017-10-22T16:33:57.630Z,9.80
2017-10-22T16:36:25.706Z,9.70
2017-10-22T16:38:53.767Z,9.50
2017-10-22T16:41:21.844Z,9.50
2017-10-22T16:43:49.907Z,9.50
2017-10-22T16:46:17.999Z,9.40
2017-10-22T16:48:46.074Z,9.10
2017-10-22T16:51:14.155Z,8.90
2017-10-22T16:53:42.227Z,8.80
2017-10-22T16:56:10.472Z,8.80
2017-10-22T16:58:38.532Z,8.60
2017-10-22T17:01:06.620Z,8.60
2017-10-22T17:03:34.689Z,8.60
2017-10-22T17:06:02.857Z,8.70
2017-10-22T17:08:31.023Z,8.60
2017-10-22T17:11:10.959Z,8.50
2017-10-22T17:13:39.088Z,8.40
2017-10-22T17:16:07.960Z,8.40
2017-10-22T17:18:36.035Z,8.40
2017-10-22T17:21:04.876Z,8.40
2017-10-22T17:23:33.081Z,8.40
2017-10-22T17:26:01.256Z,8.40
2017-10-22T17:28:29.427Z,8.40
2017-10-22T17:30:57.541Z,8.40
2017-10-22T17:33:26.373Z,8.30
2017-10-22T17:35:54.446Z,8.20
2017-10-22T17:38:22.524Z,8.30
2017-10-22T17:40:50.631Z,8.30
2017-10-22T17:43:19.658Z,8.40
2017-10-22T17:45:47.738Z,8.30
2017-10-22T17:48:15.826Z,8.40
2017-10-22T17:50:43.894Z,8.40
2017-10-22T17:53:11.980Z,8.40
2017-10-22T17:55:40.048Z,8.40
2017-10-22T17:58:08.142Z,8.30
2017-10-22T18:00:37.051Z,8.40
2017-10-22T18:03:05.159Z,8.30
2017-10-22T18:05:33.240Z,8.40
2017-10-22T18:08:01.321Z,8.40
2017-10-22T18:10:29.396Z,8.40
2017-10-22T18:12:57.477Z,8.40
2017-10-22T18:15:26.319Z,8.30
2017-10-22T18:17:54.513Z,8.30
2017-10-22T18:20:22.684Z,8.40
2017-10-22T18:22:50.752Z,8.30
2017-10-22T18:25:18.845Z,8.40
2017-10-22T18:27:47.688Z,8.40
2017-10-22T18:30:15.777Z,8.40
2017-10-22T18:32:43.857Z,8.40
2017-10-22T18:35:11.938Z,8.30
2017-10-22T18:37:40.005Z,8.30
2017-10-22T18:40:08.081Z,8.30
2017-10-22T18:42:36.152Z,8.30
2017-10-22T18:45:05.004Z,8.40
2017-10-22T18:47:33.071Z,8.40
2017-10-22T18:50:01.166Z,8.30
2017-10-22T18:52:29.456Z,8.40
2017-10-22T18:54:58.467Z,8.40
2017-10-22T18:57:26.708Z,8.40
2017-10-22T18:59:55.020Z,8.40
2017-10-22T19:02:23.881Z,8.20
2017-10-22T19:04:52.729Z,8.30
2017-10-22T19:07:20.811Z,8.30
2017-10-22T19:09:49.045Z,8.30
2017-10-22T19:12:17.221Z,8.40
2017-10-22T19:14:45.290Z,8.40
2017-10-22T19:17:13.642Z,8.30
2017-10-22T19:19:42.682Z,8.20
2017-10-22T19:22:10.898Z,8.20
2017-10-22T19:24:39.136Z,8.20
2017-10-22T19:27:07.340Z,8.30
2017-10-22T19:29:35.412Z,8.30
2017-10-22T19:32:03.728Z,8.40
2017-10-22T19:34:31.830Z,8.30
2017-10-22T19:37:00.854Z,8.30
2017-10-22T19:39:28.903Z,8.30
2017-10-22T19:41:57.007Z,8.30
2017-10-22T19:44:25.864Z,8.30
2017-10-22T19:46:53.923Z,8.30
2017-10-22T19:49:22.089Z,8.20
2017-10-22T19:51:50.231Z,8.20
2017-10-22T19:54:18.365Z,8.20
2017-10-22T19:56:46.443Z,8.10
2017-10-22T19:59:14.703Z,8.10
2017-10-22T20:01:42.779Z,8.10
2017-10-22T20:04:10.865Z,8.00
2017-10-22T20:06:39.767Z,8.00
2017-10-22T20:09:07.868Z,8.00
2017-10-22T20:11:35.941Z,8.00
2017-10-22T20:14:04.016Z,8.00
2017-10-22T20:16:32.088Z,8.00
2017-10-22T20:19:00.201Z,7.90
2017-10-22T20:21:29.048Z,7.90
2017-10-22T20:23:57.123Z,7.80
2017-10-22T20:26:25.213Z,7.90
2017-10-22T20:28:53.291Z,7.90
2017-10-22T20:31:21.368Z,7.90
2017-10-22T20:33:49.524Z,7.80
2017-10-22T20:36:19.112Z,8.10
2017-10-22T20:38:47.187Z,8.10
2017-10-22T20:41:15.273Z,7.90
2017-10-22T20:43:43.347Z,8.00
2017-10-22T20:46:11.517Z,8.10
2017-10-22T20:48:39.595Z,8.10
2017-10-22T20:51:08.443Z,8.20
2017-10-22T20:53:36.515Z,8.20
2017-10-22T20:56:04.595Z,8.20
2017-10-22T20:58:32.675Z,8.20
2017-10-22T21:01:00.760Z,8.20
2017-10-22T21:03:28.836Z,8.30
2017-10-22T21:05:57.708Z,8.20
2017-10-22T21:08:25.788Z,8.20
2017-10-22T21:10:54.047Z,8.20
2017-10-22T21:13:22.403Z,8.20
2017-10-22T21:15:51.730Z,8.10
2017-10-22T21:18:20.644Z,8.10
2017-10-22T21:20:49.329Z,8.20
2017-10-22T21:23:17.774Z,8.20
2017-10-22T21:25:46.266Z,8.20
2017-10-22T21:28:14.995Z,8.10
2017-10-22T21:30:45.500Z,8.10
2017-10-22T21:33:14.055Z,8.00
2017-10-22T21:35:44.063Z,8.10
2017-10-22T21:38:12.582Z,8.00
2017-10-22T21:40:41.230Z,8.10
2017-10-22T21:43:09.550Z,8.10
2017-10-22T21:45:37.732Z,8.20
2017-10-22T21:48:05.823Z,8.10
2017-10-22T21:50:34.191Z,8.20
2017-10-22T21:53:02.268Z,8.20
2017-10-22T21:55:30.499Z,8.20
2017-10-22T21:57:59.343Z,8.20
2017-10-22T22:00:27.431Z,8.10
2017-10-22T22:02:55.530Z,8.10
2017-10-22T22:05:24.468Z,8.10
2017-10-22T22:07:52.563Z,8.10
2017-10-22T22:10:20.660Z,8.10
2017-10-22T22:12:49.523Z,8.20
2017-10-22T22:15:17.628Z,8.10
2017-10-22T22:17:46.519Z,8.10
2017-10-22T22:20:15.620Z,8.20
2017-10-22T22:22:43.818Z,8.20
2017-10-22T22:25:11.930Z,8.20
2017-10-22T22:27:40.013Z,8.10
2017-10-22T22:30:08.864Z,8.10
2017-10-22T22:32:37.083Z,8.10
2017-10-22T22:35:05.421Z,8.10
2017-10-22T22:37:34.453Z,8.00
2017-10-22T22:40:02.544Z,8.10
2017-10-22T22:42:30.656Z,8.10
2017-10-22T22:44:58.729Z,8.10
2017-10-22T22:47:26.810Z,8.10
2017-10-22T22:49:54.885Z,8.00
2017-10-22T22:52:22.975Z,7.90
2017-10-22T22:54:51.833Z,7.90
2017-10-22T22:57:19.917Z,7.90
2017-10-22T22:59:48.003Z,7.70
2017-10-22T23:02:16.835Z,7.80
2017-10-22T23:04:44.908Z,7.70
2017-10-22T23:07:12.991Z,7.70
2017-10-22T23:09:41.084Z,7.60
2017-10-22T23:12:09.181Z,7.70
2017-10-22T23:14:37.252Z,7.70
2017-10-22T23:17:05.326Z,7.70
2017-10-22T23:19:33.501Z,7.70
2017-10-22T23:22:01.584Z,7.80
2017-10-22T23:24:29.659Z,7.80
2017-10-22T23:26:57.809Z,7.90
2017-10-22T23:29:25.888Z,7.80
2017-10-22T23:31:53.956Z,7.80
2017-10-22T23:34:22.058Z,7.80
2017-10-22T23:36:50.132Z,7.80
2017-10-22T23:39:18.963Z,7.80
2017-10-22T23:41:47.807Z,7.80
2017-10-22T23:44:15.897Z,7.70
2017-10-22T23:46:43.969Z,7.70
2017-10-22T23:49:12.053Z,7.70
2017-10-22T23:51:40.128Z,7.80
2017-10-22T23:54:09.039Z,7.70
2017-10-22T23:56:37.112Z,7.70
2017-10-22T23:59:05.190Z,7.70
